Time;durP1;ratioP1;P1;durP2;ratioP2;P2;SDS_P1;SDS_P2;PMS_P1;PMS_P2;Temp;Humidity;BMP_temperature;BMP_pressure;BME280_temperature;BME280_humidity;BME280_pressure;Samples;Min_cycle;Max_cycle;Signal;HPM_P1;HPM_P2
2023/06/03 00:00:28;;;;;;;9.40;6.20;;;14.90;99.90;;;;;;4882160;29;20181;-59
2023/06/03 00:02:56;;;;;;;8.18;6.18;;;14.90;99.90;;;;;;4882093;29;20217;-59
2023/06/03 00:05:22;;;;;;;8.90;6.00;;;14.80;99.90;;;;;;4881796;29;20240;-59
2023/06/03 00:07:48;;;;;;;7.85;6.38;;;14.80;99.90;;;;;;4882156;29;20181;-59
2023/06/03 00:10:14;;;;;;;8.55;5.70;;;14.80;99.90;;;;;;4882096;29;20217;-59
2023/06/03 00:12:40;;;;;;;8.68;5.90;;;14.80;99.90;;;;;;4865205;29;20574;-59
2023/06/03 00:15:07;;;;;;;7.90;6.38;;;14.80;99.90;;;;;;4881982;29;20210;-59
2023/06/03 00:17:33;;;;;;;7.43;5.60;;;14.80;99.90;;;;;;4874334;29;20639;-59
2023/06/03 00:20:06;;;;;;;8.82;6.25;;;14.80;99.90;;;;;;4881625;29;20180;-59
2023/06/03 00:22:35;;;;;;;10.40;6.20;;;14.80;99.90;;;;;;4881710;29;20268;-59
2023/06/03 00:25:01;;;;;;;9.95;6.13;;;14.80;99.90;;;;;;4881752;29;20658;-59
2023/06/03 00:27:27;;;;;;;9.73;6.88;;;14.70;99.90;;;;;;4881821;29;20181;-59
2023/06/03 00:29:52;;;;;;;8.25;6.50;;;14.80;99.90;;;;;;4881667;29;20604;-59
2023/06/03 00:32:18;;;;;;;9.52;6.50;;;14.80;99.90;;;;;;4881530;29;20188;-59
2023/06/03 00:34:44;;;;;;;10.10;6.38;;;14.80;99.90;;;;;;4881493;29;20539;-59
2023/06/03 00:37:09;;;;;;;8.27;6.50;;;14.70;99.90;;;;;;4881651;29;20631;-58
2023/06/03 00:39:35;;;;;;;13.02;6.50;;;14.70;99.90;;;;;;4881521;29;20246;-59
2023/06/03 00:42:00;;;;;;;9.32;6.60;;;14.60;99.90;;;;;;4881355;29;20217;-59
2023/06/03 00:44:26;;;;;;;7.72;6.38;;;14.50;99.90;;;;;;4881444;29;20673;-59
2023/06/03 00:46:53;;;;;;;10.70;6.97;;;14.60;99.90;;;;;;4881336;29;20174;-59
2023/06/03 00:49:18;;;;;;;8.43;6.60;;;14.60;99.90;;;;;;4881166;29;20181;-59
2023/06/03 00:51:45;;;;;;;10.45;6.78;;;14.60;99.90;;;;;;4881259;29;20180;-59
2023/06/03 00:54:11;;;;;;;9.55;6.55;;;14.60;99.90;;;;;;4881275;29;20213;-59
2023/06/03 00:56:43;;;;;;;10.68;7.05;;;14.50;99.90;;;;;;4881250;29;20241;-59
2023/06/03 00:59:12;;;;;;;7.32;6.22;;;14.60;99.90;;;;;;4881188;29;20225;-59
2023/06/03 01:01:38;;;;;;;8.95;7.35;;;14.70;99.90;;;;;;4881055;29;20186;-59
2023/06/03 01:04:05;;;;;;;9.05;7.20;;;14.60;99.90;;;;;;4864283;29;20240;-59
2023/06/03 01:07:08;;;;;;;7.85;6.57;;;14.50;99.90;;;;;;4881158;29;20234;-59
2023/06/03 01:10:11;;;;;;;10.75;7.00;;;14.50;99.90;;;;;;4880987;29;20255;-59
2023/06/03 01:12:57;;;;;;;9.05;6.47;;;14.60;99.90;;;;;;4881049;29;20213;-59
2023/06/03 01:15:25;;;;;;;9.07;6.55;;;14.50;99.90;;;;;;4881273;29;20180;-59
2023/06/03 01:17:53;;;;;;;8.77;6.45;;;14.40;99.90;;;;;;4880818;29;20173;-59
2023/06/03 01:20:19;;;;;;;9.80;6.70;;;14.50;99.90;;;;;;4880699;29;20271;-59
2023/06/03 01:22:51;;;;;;;9.98;7.10;;;14.50;99.90;;;;;;4880708;29;20554;-59
2023/06/03 01:25:20;;;;;;;9.95;6.68;;;14.60;99.90;;;;;;4880845;29;20170;-59
2023/06/03 01:27:48;;;;;;;7.78;6.10;;;14.50;99.90;;;;;;4880752;29;20249;-59
2023/06/03 01:30:17;;;;;;;8.75;6.30;;;14.50;99.90;;;;;;4880501;29;20660;-59
2023/06/03 01:32:44;;;;;;;8.20;6.43;;;14.40;99.90;;;;;;4879797;29;20214;-59
2023/06/03 01:35:11;;;;;;;11.25;6.70;;;14.30;99.90;;;;;;4880358;29;20183;-59
2023/06/03 01:37:37;;;;;;;8.35;6.30;;;14.40;99.90;;;;;;4880659;29;20188;-59
2023/06/03 01:40:05;;;;;;;10.45;7.10;;;14.40;99.90;;;;;;4880337;29;20181;-59
2023/06/03 01:42:31;;;;;;;9.60;6.97;;;14.30;99.90;;;;;;4863900;29;20177;-59
2023/06/03 01:44:58;;;;;;;9.63;7.00;;;14.30;99.90;;;;;;4880391;29;20188;-59
2023/06/03 01:47:24;;;;;;;7.47;6.20;;;14.30;99.90;;;;;;4880288;29;20543;-59
2023/06/03 01:49:50;;;;;;;8.82;6.47;;;14.30;99.90;;;;;;4880128;29;20594;-59
2023/06/03 01:52:15;;;;;;;10.88;7.00;;;14.20;99.90;;;;;;4880090;29;20181;-59
2023/06/03 01:54:41;;;;;;;9.63;7.07;;;14.30;99.90;;;;;;4880273;29;20177;-59
2023/06/03 01:57:07;;;;;;;8.90;7.30;;;14.30;99.90;;;;;;4880153;29;20185;-59
2023/06/03 01:59:33;;;;;;;8.20;6.75;;;14.30;99.90;;;;;;4880038;29;20185;-59
2023/06/03 02:01:59;;;;;;;7.63;6.60;;;14.10;99.90;;;;;;4880180;29;20265;-59
2023/06/03 02:04:26;;;;;;;8.65;7.30;;;14.20;99.90;;;;;;4879613;29;20285;-59
2023/06/03 02:06:53;;;;;;;11.10;6.40;;;14.10;99.90;;;;;;4880123;29;20256;-59
2023/06/03 02:09:27;;;;;;;8.13;6.40;;;14.20;99.90;;;;;;4880008;29;20196;-59
2023/06/03 02:11:54;;;;;;;8.77;6.00;;;14.20;99.90;;;;;;4879898;29;20222;-59
2023/06/03 02:14:20;;;;;;;8.75;6.68;;;14.20;99.90;;;;;;4879823;29;20221;-59
2023/06/03 02:16:48;;;;;;;7.78;6.53;;;14.20;99.90;;;;;;4879728;29;20186;-59
2023/06/03 02:19:14;;;;;;;8.93;6.97;;;14.10;99.90;;;;;;4879932;29;20182;-59
2023/06/03 02:21:41;;;;;;;8.63;6.70;;;14.10;99.90;;;;;;4879907;29;20170;-59
2023/06/03 02:24:08;;;;;;;11.20;7.28;;;14.10;99.90;;;;;;4879817;29;20189;-59
2023/06/03 02:26:34;;;;;;;10.90;6.80;;;14.10;99.90;;;;;;4879712;29;20544;-59
2023/06/03 02:29:00;;;;;;;8.00;5.88;;;14.00;99.90;;;;;;4879675;29;20188;-59
2023/06/03 02:31:25;;;;;;;7.97;6.35;;;14.00;99.90;;;;;;4879526;29;20648;-59
2023/06/03 02:33:51;;;;;;;11.50;7.05;;;14.00;99.90;;;;;;4879702;29;20223;-59
2023/06/03 02:36:18;;;;;;;8.57;6.95;;;14.00;99.90;;;;;;4879651;29;20647;-59
2023/06/03 02:38:44;;;;;;;8.35;6.25;;;13.90;99.90;;;;;;4879434;29;20189;-59
2023/06/03 02:41:10;;;;;;;11.95;7.10;;;13.90;99.90;;;;;;4879549;29;20178;-59
2023/06/03 02:43:36;;;;;;;9.15;6.30;;;13.90;99.90;;;;;;4879414;29;20177;-59
2023/06/03 02:46:02;;;;;;;11.95;6.35;;;13.80;99.90;;;;;;4879329;29;20177;-59
2023/06/03 02:48:27;;;;;;;8.30;6.70;;;13.80;99.90;;;;;;4879650;29;20208;-59
2023/06/03 02:50:53;;;;;;;9.60;6.75;;;13.80;99.90;;;;;;4879837;29;20596;-59
2023/06/03 02:53:19;;;;;;;12.50;7.25;;;13.80;99.90;;;;;;4879420;29;20741;-59
2023/06/03 02:55:45;;;;;;;9.07;6.25;;;13.80;99.90;;;;;;4879442;29;20205;-59
2023/06/03 02:58:15;;;;;;;8.60;6.47;;;13.80;99.90;;;;;;4879449;29;20185;-59
2023/06/03 03:00:41;;;;;;;8.95;7.00;;;13.80;99.90;;;;;;4879292;29;20272;-59
2023/06/03 03:03:07;;;;;;;9.25;6.90;;;13.80;99.90;;;;;;4879299;29;20238;-59
2023/06/03 03:05:34;;;;;;;7.72;6.35;;;13.80;99.90;;;;;;4879566;29;20174;-59
2023/06/03 03:07:59;;;;;;;8.20;7.00;;;13.80;99.90;;;;;;4879466;29;20181;-59
2023/06/03 03:10:25;;;;;;;11.60;7.70;;;13.80;99.90;;;;;;4879251;29;20178;-59
2023/06/03 03:12:51;;;;;;;11.45;6.80;;;13.70;99.90;;;;;;4879130;29;20220;-59
2023/06/03 03:15:17;;;;;;;8.75;7.00;;;13.70;99.90;;;;;;4862572;29;20268;-59
2023/06/03 03:17:42;;;;;;;8.60;6.82;;;13.70;99.90;;;;;;4879357;29;20187;-59
2023/06/03 03:20:09;;;;;;;9.07;6.90;;;13.80;99.90;;;;;;4879322;29;20192;-59
2023/06/03 03:22:39;;;;;;;7.40;6.55;;;13.80;99.90;;;;;;4879153;29;20186;-59
2023/06/03 03:25:05;;;;;;;7.45;6.75;;;13.70;99.90;;;;;;4879147;29;20269;-59
2023/06/03 03:27:31;;;;;;;7.53;6.82;;;13.60;99.90;;;;;;4879171;29;20222;-59
2023/06/03 03:30:00;;;;;;;7.97;6.68;;;13.60;99.90;;;;;;4879063;29;20687;-59
2023/06/03 03:32:26;;;;;;;9.75;7.05;;;13.80;99.90;;;;;;4879125;29;20647;-59
2023/06/03 03:35:15;;;;;;;8.23;7.15;;;13.70;99.90;;;;;;4879173;29;20204;-59
2023/06/03 03:37:41;;;;;;;9.65;7.38;;;13.70;99.90;;;;;;4879028;29;20170;-59
2023/06/03 03:40:21;;;;;;;8.68;6.72;;;13.70;99.90;;;;;;4878997;29;20753;-59
2023/06/03 03:42:51;;;;;;;8.57;6.50;;;13.70;99.90;;;;;;4879270;29;20188;-59
2023/06/03 03:45:21;;;;;;;8.75;6.65;;;13.70;99.90;;;;;;4879128;29;20188;-59
2023/06/03 03:47:51;;;;;;;11.27;7.40;;;13.70;99.90;;;;;;4879155;29;20174;-59
2023/06/03 03:50:39;;;;;;;9.18;6.97;;;13.70;99.90;;;;;;4878960;29;20537;-59
2023/06/03 03:53:29;;;;;;;9.10;6.72;;;13.60;99.90;;;;;;4879076;29;20284;-59
2023/06/03 03:55:57;;;;;;;11.70;7.18;;;13.50;99.90;;;;;;4869986;29;20197;-59
2023/06/03 03:58:41;;;;;;;8.45;6.80;;;13.50;99.90;;;;;;4882299;29;20170;-59
2023/06/03 04:01:23;;;;;;;11.23;6.68;;;13.60;99.90;;;;;;4882168;29;20177;-59
2023/06/03 04:03:51;;;;;;;9.70;7.07;;;13.50;99.90;;;;;;4882063;29;20242;-59
2023/06/03 04:06:36;;;;;;;11.30;6.85;;;13.40;99.90;;;;;;4882155;29;20204;-59
2023/06/03 04:09:04;;;;;;;10.73;6.97;;;13.50;99.90;;;;;;4882048;29;20181;-59
2023/06/03 04:11:36;;;;;;;8.18;6.45;;;13.30;99.90;;;;;;4881920;29;20181;-59
2023/06/03 04:14:03;;;;;;;7.57;6.47;;;13.40;99.90;;;;;;4882029;29;20220;-59
2023/06/03 04:16:34;;;;;;;9.25;6.18;;;13.30;99.90;;;;;;4882101;29;20185;-59
2023/06/03 04:19:03;;;;;;;13.48;6.82;;;13.30;99.90;;;;;;4881919;29;20183;-59
2023/06/03 04:21:30;;;;;;;9.80;7.38;;;13.30;99.90;;;;;;4881748;29;20189;-59
2023/06/03 04:23:55;;;;;;;11.35;6.90;;;13.50;99.90;;;;;;4881688;29;20540;-59
2023/06/03 04:26:21;;;;;;;9.23;7.30;;;13.40;99.90;;;;;;4881633;29;20182;-59
2023/06/03 04:28:47;;;;;;;10.15;6.85;;;13.40;99.90;;;;;;4881888;29;20177;-59
2023/06/03 04:31:12;;;;;;;12.23;7.20;;;13.50;99.90;;;;;;4881741;29;20188;-59
2023/06/03 04:33:38;;;;;;;10.95;6.88;;;13.50;99.90;;;;;;4881531;29;20217;-59
2023/06/03 04:36:04;;;;;;;11.48;7.82;;;13.60;99.90;;;;;;4881528;29;20212;-59
2023/06/03 04:38:29;;;;;;;10.00;7.35;;;13.60;99.90;;;;;;4881480;29;20173;-59
2023/06/03 04:40:55;;;;;;;9.95;7.25;;;13.60;99.90;;;;;;4881699;29;20663;-59
2023/06/03 04:43:22;;;;;;;8.02;7.07;;;13.70;99.90;;;;;;4881544;29;20294;-59
2023/06/03 04:45:49;;;;;;;10.63;7.65;;;13.60;99.90;;;;;;4881501;29;20193;-59
2023/06/03 04:48:15;;;;;;;9.63;7.25;;;13.60;99.90;;;;;;4881407;29;20193;-59
2023/06/03 04:50:44;;;;;;;10.27;7.57;;;13.70;99.90;;;;;;4881299;29;20192;-59
2023/06/03 04:53:11;;;;;;;7.63;6.80;;;13.60;99.90;;;;;;4881074;29;20217;-59
2023/06/03 04:55:43;;;;;;;9.55;7.35;;;13.80;99.90;;;;;;4881571;29;20671;-59
2023/06/03 04:58:10;;;;;;;8.30;7.10;;;13.90;99.90;;;;;;4881314;29;20261;-58
2023/06/03 05:00:36;;;;;;;13.15;7.25;;;14.00;99.90;;;;;;4881251;29;20182;-58
2023/06/03 05:03:08;;;;;;;10.13;6.93;;;14.00;99.90;;;;;;4881003;29;20276;-58
2023/06/03 05:05:35;;;;;;;9.18;7.05;;;14.20;99.90;;;;;;4881201;29;20540;-58
2023/06/03 05:08:01;;;;;;;12.90;7.35;;;14.20;99.90;;;;;;4880411;29;20211;-58
2023/06/03 05:10:27;;;;;;;11.55;7.10;;;14.30;99.90;;;;;;4881115;29;20214;-58
2023/06/03 05:12:53;;;;;;;8.35;6.80;;;14.30;99.90;;;;;;4880952;29;20236;-58
2023/06/03 05:15:19;;;;;;;9.70;6.68;;;14.40;99.90;;;;;;4880923;29;20655;-58
2023/06/03 05:17:45;;;;;;;10.82;7.03;;;14.50;99.90;;;;;;4880829;29;20220;-58
2023/06/03 05:20:11;;;;;;;9.25;6.60;;;14.40;99.90;;;;;;4880802;29;20189;-58
2023/06/03 05:22:37;;;;;;;9.43;6.82;;;14.60;99.90;;;;;;4879984;29;20212;-57
2023/06/03 05:25:06;;;;;;;8.55;6.47;;;14.70;99.90;;;;;;4880601;29;20686;-57
2023/06/03 05:27:32;;;;;;;10.35;6.45;;;14.80;99.90;;;;;;4864021;29;20181;-58
2023/06/03 05:29:57;;;;;;;8.93;5.90;;;14.90;99.90;;;;;;4880651;29;20269;-57
2023/06/03 05:32:23;;;;;;;11.63;6.85;;;15.00;99.90;;;;;;4880491;29;20238;-57
2023/06/03 05:34:49;;;;;;;10.90;6.18;;;15.00;99.90;;;;;;4878184;29;20699;-57
2023/06/03 05:37:15;;;;;;;10.13;6.63;;;15.00;99.90;;;;;;4871430;29;20235;-57
2023/06/03 05:39:40;;;;;;;9.55;6.47;;;15.20;99.90;;;;;;4866636;29;20190;-58
2023/06/03 05:42:06;;;;;;;9.30;5.68;;;15.20;99.90;;;;;;4877811;29;20260;-57
2023/06/03 05:44:32;;;;;;;9.50;6.13;;;15.30;99.90;;;;;;4876107;29;20232;-58
2023/06/03 05:46:58;;;;;;;8.80;5.65;;;15.40;99.90;;;;;;4871599;29;20181;-57
2023/06/03 05:49:23;;;;;;;7.68;5.22;;;15.50;99.90;;;;;;4870205;29;20195;-57
2023/06/03 05:51:50;;;;;;;7.47;5.57;;;15.60;99.90;;;;;;4870013;29;20916;-57
2023/06/03 05:54:15;;;;;;;11.23;5.55;;;15.40;99.90;;;;;;4854718;29;20578;-57
2023/06/03 05:56:41;;;;;;;12.35;5.82;;;15.50;99.90;;;;;;4877726;29;20184;-57
2023/06/03 05:59:07;;;;;;;7.25;5.05;;;15.70;99.90;;;;;;4880105;29;20525;-57
2023/06/03 06:01:35;;;;;;;5.72;4.90;;;15.70;99.90;;;;;;4879949;29;20643;-57
2023/06/03 06:04:03;;;;;;;10.45;5.43;;;15.80;99.90;;;;;;4876265;29;20240;-57
2023/06/03 06:06:29;;;;;;;9.02;5.22;;;15.80;99.90;;;;;;4861874;29;20177;-57
2023/06/03 06:08:54;;;;;;;6.68;4.78;;;16.00;99.90;;;;;;4879891;29;20186;-57
2023/06/03 06:11:20;;;;;;;8.48;5.35;;;16.20;99.90;;;;;;4873612;29;20224;-58
2023/06/03 06:13:46;;;;;;;7.75;5.25;;;16.30;99.90;;;;;;4859992;29;20245;-58
2023/06/03 06:16:12;;;;;;;7.78;4.90;;;16.40;99.90;;;;;;4858597;29;20211;-58
2023/06/03 06:18:37;;;;;;;9.13;5.15;;;16.50;99.90;;;;;;4860414;29;20378;-58
2023/06/03 06:21:03;;;;;;;6.97;4.63;;;16.70;99.90;;;;;;4860901;29;20210;-56
2023/06/03 06:23:30;;;;;;;9.65;4.78;;;16.80;99.90;;;;;;4861151;29;20183;-58
2023/06/03 06:25:55;;;;;;;6.88;4.60;;;16.90;99.90;;;;;;4860141;29;20184;-58
2023/06/03 06:28:25;;;;;;;9.20;4.50;;;17.00;99.90;;;;;;4860804;29;20182;-57
2023/06/03 06:31:02;;;;;;;6.45;4.32;;;17.00;99.90;;;;;;4860957;29;20189;-57
2023/06/03 06:33:29;;;;;;;6.88;4.18;;;16.90;99.90;;;;;;4860796;29;20205;-58
2023/06/03 06:35:55;;;;;;;6.55;4.22;;;17.10;99.90;;;;;;4873422;29;20196;-57
2023/06/03 06:38:20;;;;;;;9.55;3.97;;;17.20;99.90;;;;;;4879377;29;20177;-56
2023/06/03 06:40:49;;;;;;;8.38;3.95;;;17.40;99.90;;;;;;4879537;29;20181;-57
2023/06/03 06:43:16;;;;;;;9.10;4.63;;;17.50;99.90;;;;;;4879392;29;20723;-56
2023/06/03 06:45:41;;;;;;;5.68;4.10;;;17.60;99.90;;;;;;4879351;29;20202;-57
2023/06/03 06:48:10;;;;;;;6.93;4.60;;;17.50;99.90;;;;;;4879144;29;20186;-57
2023/06/03 06:50:48;;;;;;;7.13;4.35;;;17.40;99.90;;;;;;4879521;29;20689;-57
2023/06/03 06:53:16;;;;;;;6.50;3.92;;;17.40;99.90;;;;;;4879467;29;20232;-55
2023/06/03 06:55:46;;;;;;;7.25;4.05;;;17.60;99.90;;;;;;4879160;29;20224;-56
2023/06/03 06:58:13;;;;;;;8.27;4.72;;;17.60;99.90;;;;;;4879313;29;20178;-55
2023/06/03 07:00:38;;;;;;;7.32;4.35;;;17.70;99.90;;;;;;4879306;29;20326;-55
2023/06/03 07:03:18;;;;;;;6.85;4.38;;;17.70;99.90;;;;;;4879341;29;20276;-57
2023/06/03 07:05:45;;;;;;;5.93;3.67;;;17.80;99.90;;;;;;4879708;29;20225;-58
2023/06/03 07:08:10;;;;;;;7.95;4.18;;;18.00;99.90;;;;;;4847754;29;20532;-57
2023/06/03 07:10:37;;;;;;;6.13;3.88;;;18.10;99.90;;;;;;4879409;29;20189;-57
2023/06/03 07:13:03;;;;;;;6.40;3.58;;;18.40;99.90;;;;;;4879107;29;20604;-57
2023/06/03 07:15:29;;;;;;;8.18;4.00;;;18.30;99.90;;;;;;4879417;29;20192;-54
2023/06/03 07:17:56;;;;;;;9.15;3.97;;;18.40;99.90;;;;;;4879280;29;20178;-58
2023/06/03 07:20:36;;;;;;;6.65;3.53;;;18.60;99.90;;;;;;4879189;29;20190;-58
2023/06/03 07:23:08;;;;;;;6.45;3.83;;;18.60;99.90;;;;;;4879262;29;20240;-57
2023/06/03 07:25:35;;;;;;;8.98;4.20;;;18.70;99.90;;;;;;4879142;29;20268;-58
2023/06/03 07:28:04;;;;;;;7.28;4.00;;;18.80;99.90;;;;;;4879512;29;20595;-58
2023/06/03 07:30:29;;;;;;;5.22;3.38;;;19.10;99.90;;;;;;4879786;29;20604;-57
2023/06/03 07:32:59;;;;;;;5.15;3.40;;;19.40;99.90;;;;;;4882639;29;20300;-57
2023/06/03 07:35:25;;;;;;;8.63;3.65;;;19.60;99.90;;;;;;4882649;29;20276;-57
2023/06/03 07:37:50;;;;;;;5.43;3.70;;;19.70;99.90;;;;;;4882575;29;20177;-58
2023/06/03 07:40:16;;;;;;;4.32;3.25;;;19.70;99.90;;;;;;4882534;29;20671;-58
2023/06/03 07:42:48;;;;;;;5.55;3.20;;;19.70;99.50;;;;;;4866147;29;20189;-58
2023/06/03 07:45:14;;;;;;;6.90;3.20;;;19.60;99.60;;;;;;4882600;29;20201;-58
2023/06/03 07:47:44;;;;;;;4.55;3.05;;;19.60;99.90;;;;;;4882499;29;20653;-58
2023/06/03 07:50:24;;;;;;;5.07;3.15;;;19.70;99.00;;;;;;4882339;29;20182;-58
2023/06/03 07:53:13;;;;;;;5.75;2.78;;;19.80;98.40;;;;;;4882421;29;20205;-58
2023/06/03 07:55:44;;;;;;;6.13;3.00;;;19.90;98.80;;;;;;4882451;29;20189;-58
2023/06/03 07:58:11;;;;;;;6.90;3.50;;;20.10;97.50;;;;;;4882402;29;20189;-58
2023/06/03 08:00:44;;;;;;;5.82;3.20;;;20.20;98.10;;;;;;4882268;29;20218;-58
2023/06/03 08:03:16;;;;;;;5.38;3.00;;;20.20;97.50;;;;;;4881955;29;20241;-58
2023/06/03 08:05:42;;;;;;;7.63;3.15;;;20.00;96.90;;;;;;4882332;29;20173;-58
2023/06/03 08:08:12;;;;;;;3.92;2.72;;;20.10;96.20;;;;;;4882238;29;20189;-59
2023/06/03 08:10:38;;;;;;;4.82;2.80;;;20.40;97.60;;;;;;4882214;29;20248;-59
2023/06/03 08:13:05;;;;;;;5.88;2.78;;;20.30;95.20;;;;;;4882148;29;20304;-58
2023/06/03 08:15:35;;;;;;;3.40;2.30;;;20.20;94.60;;;;;;4881851;29;20186;-57
2023/06/03 08:18:05;;;;;;;4.38;2.30;;;20.40;94.60;;;;;;4882071;29;20201;-58
2023/06/03 08:20:33;;;;;;;4.43;2.30;;;20.40;92.70;;;;;;4882176;29;20219;-58
2023/06/03 08:22:59;;;;;;;5.60;2.50;;;20.50;92.90;;;;;;4881785;29;20636;-58
2023/06/03 08:25:25;;;;;;;5.97;2.30;;;20.50;94.40;;;;;;4881821;29;20174;-58
2023/06/03 08:27:51;;;;;;;5.88;2.60;;;20.60;93.80;;;;;;4881782;29;20524;-58
2023/06/03 08:30:20;;;;;;;5.18;2.55;;;20.60;94.20;;;;;;4881655;29;20182;-58
2023/06/03 08:32:46;;;;;;;2.22;1.98;;;20.70;93.20;;;;;;4881712;29;20260;-58
2023/06/03 08:35:15;;;;;;;1.95;1.75;;;20.60;94.10;;;;;;4881783;29;20177;-58
2023/06/03 08:37:41;;;;;;;6.65;2.20;;;20.70;92.50;;;;;;4881752;29;20181;-58
2023/06/03 08:40:09;;;;;;;4.18;1.92;;;20.60;92.80;;;;;;4881626;29;20237;-59
2023/06/03 08:42:42;;;;;;;2.75;1.73;;;20.80;92.40;;;;;;4881257;29;20252;-58
2023/06/03 08:45:12;;;;;;;3.72;1.77;;;21.00;92.60;;;;;;4881623;29;20177;-58
2023/06/03 08:48:02;;;;;;;3.88;2.13;;;20.90;91.50;;;;;;4881416;29;20189;-58
2023/06/03 08:50:28;;;;;;;4.40;2.40;;;21.00;92.00;;;;;;4881677;29;20189;-58
2023/06/03 08:52:55;;;;;;;2.85;1.85;;;21.10;90.50;;;;;;4874324;29;20213;-58
2023/06/03 08:55:21;;;;;;;5.63;1.73;;;21.00;91.60;;;;;;4881109;29;20181;-58
2023/06/03 08:58:04;;;;;;;4.63;1.83;;;21.10;91.50;;;;;;4881367;29;20177;-57
2023/06/03 09:00:31;;;;;;;4.38;2.00;;;21.30;89.50;;;;;;4881163;29;20177;-58
2023/06/03 09:02:58;;;;;;;3.33;2.00;;;21.30;90.60;;;;;;4881039;29;20213;-58
2023/06/03 09:05:25;;;;;;;4.78;1.90;;;21.50;90.30;;;;;;4880861;29;20233;-58
2023/06/03 09:07:51;;;;;;;4.53;1.88;;;21.70;90.00;;;;;;4881167;29;20185;-58
2023/06/03 09:10:21;;;;;;;2.60;1.88;;;21.70;90.30;;;;;;4881010;29;20201;-57
2023/06/03 09:12:48;;;;;;;3.53;1.73;;;21.60;87.30;;;;;;4881123;29;20221;-57
2023/06/03 09:15:14;;;;;;;2.53;1.50;;;21.60;87.50;;;;;;4880613;29;20605;-58
2023/06/03 09:17:44;;;;;;;4.55;1.77;;;21.50;86.70;;;;;;4880841;29;20226;-57
2023/06/03 09:20:11;;;;;;;2.88;1.75;;;21.50;87.40;;;;;;4880719;29;20185;-58
2023/06/03 09:22:38;;;;;;;4.45;2.00;;;21.60;87.40;;;;;;4880929;29;20633;-57
2023/06/03 09:25:04;;;;;;;3.85;1.75;;;21.60;86.60;;;;;;4880856;29;20182;-56
2023/06/03 09:27:31;;;;;;;4.00;1.98;;;21.60;86.20;;;;;;4880624;29;20220;-57
2023/06/03 09:29:58;;;;;;;3.97;1.95;;;21.70;86.50;;;;;;4880678;29;20181;-57
2023/06/03 09:32:23;;;;;;;3.63;1.63;;;21.80;87.20;;;;;;4880512;29;20216;-57
2023/06/03 09:34:50;;;;;;;4.97;1.60;;;21.70;83.00;;;;;;4880420;29;20240;-57
2023/06/03 09:37:16;;;;;;;2.28;1.65;;;21.70;87.20;;;;;;4880668;29;20193;-56
2023/06/03 09:39:42;;;;;;;5.38;1.90;;;21.60;81.00;;;;;;4880635;29;20182;-57
2023/06/03 09:42:08;;;;;;;3.40;1.60;;;21.70;82.90;;;;;;4880347;29;20552;-57
2023/06/03 09:44:55;;;;;;;3.28;1.52;;;21.60;81.20;;;;;;4880442;29;20181;-57
2023/06/03 09:47:21;;;;;;;4.13;1.90;;;21.40;80.30;;;;;;4880251;29;20572;-57
2023/06/03 09:50:04;;;;;;;4.47;2.00;;;21.40;83.70;;;;;;4880459;29;20263;-57
2023/06/03 09:52:34;;;;;;;5.00;2.03;;;21.70;84.20;;;;;;4880162;29;20219;-57
2023/06/03 09:55:05;;;;;;;4.93;2.05;;;21.80;82.20;;;;;;4879704;29;20543;-57
2023/06/03 09:57:32;;;;;;;3.08;1.77;;;21.80;82.00;;;;;;4880100;29;20178;-57
2023/06/03 10:00:06;;;;;;;4.80;1.90;;;22.00;82.10;;;;;;4880039;29;20185;-57
2023/06/03 10:02:31;;;;;;;2.88;1.65;;;22.00;82.70;;;;;;4880101;29;20643;-58
2023/06/03 10:04:58;;;;;;;4.25;1.60;;;22.30;83.10;;;;;;4880117;29;20229;-58
2023/06/03 10:07:23;;;;;;;3.63;1.73;;;22.50;80.30;;;;;;4880013;29;20576;-58
2023/06/03 10:09:49;;;;;;;2.83;1.60;;;22.40;78.80;;;;;;4880044;29;20260;-57
2023/06/03 10:12:30;;;;;;;5.40;2.00;;;22.40;80.70;;;;;;4879858;29;20186;-57
2023/06/03 10:14:59;;;;;;;4.00;1.48;;;22.50;80.50;;;;;;4880058;29;20217;-57
2023/06/03 10:17:25;;;;;;;3.17;1.50;;;22.40;80.60;;;;;;4879845;29;20186;-57
2023/06/03 10:19:52;;;;;;;3.10;1.70;;;22.70;81.20;;;;;;4879907;29;20178;-57
2023/06/03 10:22:19;;;;;;;3.60;1.63;;;22.90;78.80;;;;;;4879782;29;20170;-58
2023/06/03 10:24:46;;;;;;;3.85;1.63;;;22.70;77.70;;;;;;4879797;29;20276;-57
2023/06/03 10:27:14;;;;;;;4.05;1.38;;;22.70;78.10;;;;;;4879862;29;20177;-58
2023/06/03 10:29:40;;;;;;;3.20;1.60;;;22.70;76.50;;;;;;4863140;29;20177;-58
2023/06/03 10:32:08;;;;;;;4.88;1.48;;;23.00;79.10;;;;;;4880093;29;20182;-58
2023/06/03 10:34:41;;;;;;;2.97;1.40;;;23.00;77.20;;;;;;4879552;29;20232;-58
2023/06/03 10:37:09;;;;;;;4.63;1.60;;;23.10;74.70;;;;;;4879729;29;20169;-59
2023/06/03 10:39:35;;;;;;;3.17;1.70;;;22.90;74.60;;;;;;4879494;29;20177;-59
2023/06/03 10:42:09;;;;;;;5.35;1.80;;;22.80;74.80;;;;;;4879740;29;20585;-58
2023/06/03 10:44:35;;;;;;;4.85;1.58;;;23.30;78.00;;;;;;4879642;29;20268;-59
2023/06/03 10:47:06;;;;;;;5.20;1.30;;;23.30;73.20;;;;;;4879566;29;20208;-58
2023/06/03 10:49:37;;;;;;;4.80;1.60;;;23.00;75.70;;;;;;4879417;29;20216;-58
2023/06/03 10:52:15;;;;;;;4.50;1.60;;;22.90;76.60;;;;;;4879276;29;20184;-59
2023/06/03 10:54:40;;;;;;;6.70;1.80;;;23.00;74.90;;;;;;4879489;29;20624;-60
2023/06/03 10:57:11;;;;;;;3.38;1.50;;;23.40;77.80;;;;;;4879511;29;20173;-60
2023/06/03 10:59:41;;;;;;;2.70;1.33;;;23.40;74.30;;;;;;4879414;29;20177;-60
2023/06/03 11:02:07;;;;;;;5.25;1.42;;;23.60;72.70;;;;;;4879389;29;20173;-60
2023/06/03 11:04:37;;;;;;;3.58;1.48;;;23.60;72.80;;;;;;4879797;29;20311;-61
2023/06/03 11:07:05;;;;;;;3.70;1.52;;;23.50;73.90;;;;;;4882501;29;20181;-60
2023/06/03 11:09:39;;;;;;;4.18;1.77;;;23.50;74.50;;;;;;4882309;29;20212;-60
2023/06/03 11:12:13;;;;;;;3.28;1.60;;;23.40;71.80;;;;;;4882201;29;20697;-60
2023/06/03 11:14:48;;;;;;;2.30;1.60;;;23.10;71.30;;;;;;4882137;29;20293;-60
2023/06/03 11:17:15;;;;;;;3.47;1.60;;;23.10;68.80;;;;;;4882040;29;20181;-60
2023/06/03 11:19:49;;;;;;;2.67;1.40;;;23.00;70.20;;;;;;4882186;29;20196;-60
2023/06/03 11:22:27;;;;;;;2.28;1.65;;;23.30;73.20;;;;;;4882056;29;20575;-60
2023/06/03 11:24:53;;;;;;;5.53;1.52;;;23.50;70.60;;;;;;4881953;29;20715;-60
2023/06/03 11:27:19;;;;;;;2.72;1.35;;;23.40;70.40;;;;;;4865231;29;20184;-60
2023/06/03 11:29:57;;;;;;;3.70;1.30;;;23.30;70.80;;;;;;4882142;29;20173;-60
2023/06/03 11:32:27;;;;;;;4.40;1.63;;;23.40;71.50;;;;;;4882151;29;20192;-60
2023/06/03 11:34:59;;;;;;;4.38;1.40;;;23.00;67.30;;;;;;4881769;29;20221;-60
2023/06/03 11:37:52;;;;;;;2.25;1.40;;;22.90;70.70;;;;;;4881740;29;20182;-60
2023/06/03 11:40:22;;;;;;;4.00;1.63;;;22.80;70.30;;;;;;4882022;29;20402;-59
2023/06/03 11:42:50;;;;;;;5.20;1.40;;;22.90;69.30;;;;;;4881638;29;20285;-60
2023/06/03 11:45:21;;;;;;;5.20;1.73;;;22.90;67.70;;;;;;4881685;29;20635;-60
2023/06/03 11:47:54;;;;;;;4.60;1.40;;;23.00;68.90;;;;;;4881661;29;20208;-60
2023/06/03 11:50:24;;;;;;;4.43;1.75;;;23.10;69.90;;;;;;4881475;29;20184;-60
2023/06/03 11:52:50;;;;;;;3.53;1.52;;;23.10;68.30;;;;;;4881632;29;20177;-60
2023/06/03 11:55:25;;;;;;;4.75;1.50;;;23.30;68.50;;;;;;4881576;29;20245;-60
2023/06/03 11:57:52;;;;;;;3.10;1.27;;;23.30;68.50;;;;;;4881400;29;20173;-60
2023/06/03 12:00:18;;;;;;;2.35;1.60;;;23.20;68.90;;;;;;4881387;29;20624;-60
2023/06/03 12:02:48;;;;;;;2.88;1.30;;;23.30;67.00;;;;;;4881269;29;20535;-60
2023/06/03 12:05:23;;;;;;;3.03;1.40;;;23.40;69.00;;;;;;4881415;29;20364;-59
2023/06/03 12:08:01;;;;;;;4.47;1.63;;;23.40;66.80;;;;;;4881395;29;20177;-60
2023/06/03 12:10:27;;;;;;;3.17;1.10;;;23.40;67.50;;;;;;4881111;29;20528;-60
2023/06/03 12:12:56;;;;;;;5.88;1.40;;;23.30;68.00;;;;;;4880980;29;20667;-59
2023/06/03 12:15:22;;;;;;;5.93;1.90;;;23.40;66.30;;;;;;4881040;29;20205;-60
2023/06/03 12:17:48;;;;;;;4.88;1.10;;;23.30;65.70;;;;;;4880484;29;20583;-59
2023/06/03 12:20:28;;;;;;;4.35;1.33;;;23.30;66.40;;;;;;4880970;29;20229;-60
2023/06/03 12:23:01;;;;;;;3.95;1.45;;;23.20;66.30;;;;;;4878383;29;20906;-60
2023/06/03 12:25:27;;;;;;;4.53;1.60;;;23.40;64.90;;;;;;4873142;29;20213;-59
2023/06/03 12:27:54;;;;;;;6.00;1.30;;;23.20;64.80;;;;;;4880507;29;20202;-58
2023/06/03 12:30:31;;;;;;;8.48;1.45;;;23.20;67.00;;;;;;4880882;29;20624;-59
2023/06/03 12:32:59;;;;;;;2.80;1.10;;;23.10;64.80;;;;;;4880936;29;20280;-59
2023/06/03 12:35:26;;;;;;;4.60;1.33;;;23.20;66.90;;;;;;4880859;29;20181;-58
2023/06/03 12:38:08;;;;;;;2.80;1.25;;;23.30;66.20;;;;;;4880475;29;20654;-60
2023/06/03 12:40:35;;;;;;;1.85;1.10;;;23.30;64.30;;;;;;4879885;29;20609;-59
2023/06/03 12:43:04;;;;;;;4.60;1.30;;;23.50;67.60;;;;;;4880892;29;20178;-58
2023/06/03 12:45:30;;;;;;;2.45;1.35;;;23.40;63.40;;;;;;4880424;29;20181;-59
2023/06/03 12:47:56;;;;;;;2.85;1.35;;;23.40;63.50;;;;;;4880221;29;20644;-60
2023/06/03 12:50:30;;;;;;;1.33;1.10;;;23.30;62.00;;;;;;4879716;29;20269;-59
2023/06/03 12:52:55;;;;;;;2.03;1.13;;;23.20;64.50;;;;;;4872365;29;20660;-60